createdAt,value
2022-12-23T00:00:36.957Z,10.30
2022-12-23T00:03:06.317Z,10.97
2022-12-23T00:05:38.291Z,9.67
2022-12-23T00:08:08.453Z,9.93
2022-12-23T00:10:40.558Z,10.07
2022-12-23T00:13:27.512Z,9.83
2022-12-23T00:16:05.275Z,10.47
2022-12-23T00:18:34.999Z,10.27
2022-12-23T00:21:08.841Z,9.27
2022-12-23T00:23:41.153Z,9.83
2022-12-23T00:26:15.567Z,9.60
2022-12-23T00:28:45.167Z,10.17
2022-12-23T00:31:18.575Z,12.23
2022-12-23T00:33:50.290Z,10.50
2022-12-23T00:36:21.371Z,9.73
2022-12-23T00:39:08.052Z,9.93
2022-12-23T00:41:55.044Z,10.93
2022-12-23T00:44:24.190Z,10.10
2022-12-23T00:46:54.871Z,8.90
2022-12-23T00:49:41.524Z,9.13
2022-12-23T00:52:12.659Z,10.17
2022-12-23T00:54:42.194Z,14.60
2022-12-23T00:57:11.328Z,13.37
2022-12-23T00:59:40.430Z,13.37
2022-12-23T01:02:30.230Z,10.97
2022-12-23T01:05:16.699Z,11.23
2022-12-23T01:07:45.802Z,9.97
2022-12-23T01:10:14.978Z,9.37
2022-12-23T01:12:44.038Z,9.00
2022-12-23T01:15:13.120Z,10.40
2022-12-23T01:17:43.640Z,9.97
2022-12-23T01:20:13.810Z,10.40
2022-12-23T01:22:42.863Z,10.57
2022-12-23T01:25:13.035Z,9.80
2022-12-23T01:27:42.092Z,9.53
2022-12-23T01:30:11.836Z,10.00
2022-12-23T01:32:42.239Z,10.13
2022-12-23T01:35:11.417Z,10.83
2022-12-23T01:37:40.482Z,9.63
2022-12-23T01:40:10.746Z,9.93
2022-12-23T01:42:44.566Z,10.10
2022-12-23T01:45:19.650Z,9.97
2022-12-23T01:47:55.736Z,10.43
2022-12-23T01:50:28.586Z,9.77
2022-12-23T01:53:07.299Z,9.47
2022-12-23T01:55:41.831Z,10.50
2022-12-23T01:58:14.478Z,10.03
2022-12-23T02:01:02.229Z,10.10
2022-12-23T02:03:45.145Z,9.03
2022-12-23T02:06:39.680Z,8.93
2022-12-23T02:09:20.528Z,9.97
2022-12-23T02:12:22.362Z,9.30
2022-12-23T02:15:23.164Z,11.27
2022-12-23T02:18:16.763Z,10.27
2022-12-23T02:21:04.261Z,9.80
2022-12-23T02:24:09.683Z,10.67
2022-12-23T02:27:10.517Z,9.73
2022-12-23T02:30:11.883Z,10.27
2022-12-23T02:32:54.117Z,9.33
2022-12-23T02:35:31.427Z,11.23
2022-12-23T02:38:10.201Z,10.50
2022-12-23T02:40:49.018Z,10.30
2022-12-23T02:43:23.870Z,10.10
2022-12-23T02:46:01.599Z,10.53
2022-12-23T02:48:38.809Z,10.60
2022-12-23T02:51:09.955Z,11.00
2022-12-23T02:53:43.412Z,11.03
2022-12-23T02:56:15.073Z,10.33
2022-12-23T02:58:51.108Z,10.83
2022-12-23T03:01:21.775Z,11.00
2022-12-23T03:03:53.043Z,11.67
2022-12-23T03:06:26.181Z,10.70
2022-12-23T03:08:57.988Z,11.20
2022-12-23T03:11:40.163Z,10.33
2022-12-23T03:14:33.734Z,10.70
2022-12-23T03:17:16.675Z,10.27
2022-12-23T03:19:55.058Z,10.10
2022-12-23T03:22:32.128Z,10.27
2022-12-23T03:25:08.285Z,10.57
2022-12-23T03:27:43.702Z,10.40
2022-12-23T03:30:15.927Z,10.80
2022-12-23T03:32:50.399Z,9.87
2022-12-23T03:35:25.660Z,9.87
2022-12-23T03:37:58.177Z,9.47
2022-12-23T03:40:30.791Z,10.83
2022-12-23T03:43:05.060Z,9.87
2022-12-23T03:45:40.692Z,10.90
2022-12-23T03:48:16.473Z,9.47
2022-12-23T03:50:50.208Z,10.00
2022-12-23T03:53:24.398Z,11.57
2022-12-23T03:55:57.608Z,11.47
2022-12-23T03:58:35.619Z,11.77
2022-12-23T04:01:18.085Z,12.53
2022-12-23T04:03:55.238Z,11.53
2022-12-23T04:06:28.381Z,9.77
2022-12-23T04:08:58.757Z,11.83
2022-12-23T04:11:27.838Z,12.43
2022-12-23T04:13:57.012Z,12.53
2022-12-23T04:16:26.216Z,12.37
2022-12-23T04:18:56.923Z,11.20
2022-12-23T04:21:28.164Z,11.93
2022-12-23T04:23:57.202Z,12.63
2022-12-23T04:26:26.259Z,11.60
2022-12-23T04:28:55.325Z,12.03
2022-12-23T04:31:24.462Z,12.67
2022-12-23T04:33:53.556Z,14.27
2022-12-23T04:36:22.593Z,12.63
2022-12-23T04:38:53.056Z,13.47
2022-12-23T04:41:22.171Z,13.53
2022-12-23T04:43:53.236Z,14.03
2022-12-23T04:46:22.874Z,13.03
2022-12-23T04:48:52.072Z,12.83
2022-12-23T04:51:21.474Z,13.00
2022-12-23T04:53:51.922Z,12.70
2022-12-23T04:56:21.053Z,13.00
2022-12-23T04:58:50.105Z,13.23
2022-12-23T05:01:19.330Z,11.97
2022-12-23T05:03:48.453Z,13.40
2022-12-23T05:06:17.556Z,14.63
2022-12-23T05:08:46.657Z,14.37
2022-12-23T05:11:17.067Z,14.20
2022-12-23T05:13:46.186Z,14.23
2022-12-23T05:16:15.362Z,14.13
2022-12-23T05:18:44.432Z,14.30
2022-12-23T05:21:13.555Z,14.13
2022-12-23T05:23:42.765Z,13.90
2022-12-23T05:26:11.867Z,14.10
2022-12-23T05:28:42.944Z,14.03
2022-12-23T05:31:12.831Z,12.87
2022-12-23T05:33:42.236Z,15.20
2022-12-23T05:36:12.431Z,15.10
2022-12-23T05:38:41.506Z,14.77
2022-12-23T05:41:10.830Z,15.87
2022-12-23T05:43:41.272Z,14.83
2022-12-23T05:46:10.361Z,14.80
2022-12-23T05:48:39.473Z,16.13
2022-12-23T05:51:08.614Z,14.77
2022-12-23T05:53:37.748Z,15.00
2022-12-23T05:56:07.640Z,14.30
2022-12-23T05:58:36.713Z,14.87
2022-12-23T06:01:07.613Z,15.03
2022-12-23T06:03:36.775Z,16.07
2022-12-23T06:06:06.530Z,13.47
2022-12-23T06:08:35.610Z,15.27
2022-12-23T06:11:06.518Z,14.47
2022-12-23T06:13:35.573Z,14.70
2022-12-23T06:16:06.647Z,15.17
2022-12-23T06:18:35.754Z,14.07
2022-12-23T06:21:05.139Z,14.80
2022-12-23T06:23:34.182Z,15.03
2022-12-23T06:26:04.027Z,14.20
2022-12-23T06:28:33.305Z,15.77
2022-12-23T06:31:02.453Z,16.17
2022-12-23T06:33:33.394Z,15.10
2022-12-23T06:36:10.893Z,13.57
2022-12-23T06:38:39.907Z,14.73
2022-12-23T06:41:09.045Z,14.23
2022-12-23T06:43:38.061Z,14.90
2022-12-23T06:46:07.152Z,14.20
2022-12-23T06:48:37.712Z,14.73
2022-12-23T06:51:07.128Z,13.37
2022-12-23T06:53:36.146Z,14.67
2022-12-23T06:56:06.298Z,13.27
2022-12-23T06:58:35.409Z,13.20
2022-12-23T07:01:04.618Z,13.80
2022-12-23T07:03:33.721Z,13.50
2022-12-23T07:06:04.417Z,13.13
2022-12-23T07:08:33.500Z,13.40
2022-12-23T07:11:04.937Z,13.73
2022-12-23T07:13:34.513Z,12.70
2022-12-23T07:16:07.851Z,14.33
2022-12-23T07:18:37.424Z,12.33
2022-12-23T07:21:15.582Z,12.93
2022-12-23T07:23:48.958Z,13.97
2022-12-23T07:26:18.025Z,13.50
2022-12-23T07:28:48.223Z,13.83
2022-12-23T07:31:17.648Z,14.17
2022-12-23T07:33:47.137Z,13.17
2022-12-23T07:36:17.785Z,13.33
2022-12-23T07:38:49.857Z,11.30
2022-12-23T07:41:19.307Z,12.73
2022-12-23T07:43:48.475Z,12.77
2022-12-23T07:46:17.565Z,13.53
2022-12-23T07:48:46.686Z,11.57
2022-12-23T07:51:17.322Z,14.57
2022-12-23T07:53:50.555Z,12.10
2022-12-23T07:56:19.763Z,14.10
2022-12-23T07:58:50.784Z,11.73
2022-12-23T08:01:20.777Z,11.37
2022-12-23T08:03:50.269Z,12.00
2022-12-23T08:06:20.707Z,11.27
2022-12-23T08:08:49.800Z,11.70
2022-12-23T08:11:18.899Z,12.77
2022-12-23T08:13:49.148Z,10.97
2022-12-23T08:16:18.223Z,11.47
2022-12-23T08:18:47.448Z,11.07
2022-12-23T08:21:19.351Z,11.80
2022-12-23T08:23:50.142Z,12.03
2022-12-23T08:26:21.576Z,11.70
2022-12-23T08:28:53.629Z,10.30
2022-12-23T08:31:24.672Z,12.07
2022-12-23T08:33:55.339Z,10.50
2022-12-23T08:36:27.013Z,11.27
2022-12-23T08:38:59.237Z,10.43
2022-12-23T08:41:30.776Z,12.00
2022-12-23T08:44:00.236Z,12.07
2022-12-23T08:46:30.129Z,11.23
2022-12-23T08:48:59.328Z,10.83
2022-12-23T08:51:29.198Z,11.10
2022-12-23T08:54:01.645Z,10.47
2022-12-23T08:56:32.877Z,10.20
2022-12-23T08:59:02.803Z,12.13
2022-12-23T09:01:33.858Z,9.73
2022-12-23T09:04:04.528Z,10.23
2022-12-23T09:06:37.270Z,10.50
2022-12-23T09:09:08.746Z,10.80
2022-12-23T09:11:38.129Z,10.87
2022-12-23T09:14:08.477Z,10.27
2022-12-23T09:16:37.875Z,10.47
2022-12-23T09:19:07.613Z,10.57
2022-12-23T09:21:36.905Z,10.10
2022-12-23T09:24:08.149Z,11.00
2022-12-23T09:26:37.250Z,9.70
2022-12-23T09:29:06.344Z,11.27
2022-12-23T09:31:37.792Z,10.70
2022-12-23T09:34:07.475Z,9.93
2022-12-23T09:36:36.614Z,10.47
2022-12-23T09:39:05.834Z,10.83
2022-12-23T09:41:53.059Z,11.87
2022-12-23T09:44:40.610Z,10.57
2022-12-23T09:47:13.968Z,8.83
2022-12-23T09:49:49.687Z,8.90
2022-12-23T09:52:25.790Z,10.00
2022-12-23T09:54:56.516Z,10.33
2022-12-23T09:57:36.861Z,10.07
2022-12-23T10:00:12.410Z,9.33
2022-12-23T10:03:01.171Z,10.67
2022-12-23T10:05:40.587Z,9.07
2022-12-23T10:08:15.187Z,10.00
2022-12-23T10:10:47.981Z,9.43
2022-12-23T10:13:27.035Z,10.47
2022-12-23T10:15:59.437Z,9.20
2022-12-23T10:18:39.194Z,8.80
2022-12-23T10:21:16.393Z,9.03
2022-12-23T10:23:52.297Z,9.90
2022-12-23T10:26:26.944Z,8.93
2022-12-23T10:29:13.979Z,9.40
2022-12-23T10:31:59.634Z,9.43
2022-12-23T10:34:38.773Z,10.03
2022-12-23T10:37:15.564Z,9.73
2022-12-23T10:39:52.589Z,9.77
2022-12-23T10:42:32.275Z,9.73
2022-12-23T10:45:17.534Z,9.93
2022-12-23T10:47:56.833Z,10.03
2022-12-23T10:50:46.697Z,9.67
2022-12-23T10:53:30.241Z,11.10
2022-12-23T10:56:00.877Z,10.13
2022-12-23T10:58:30.952Z,10.93
2022-12-23T11:01:14.162Z,14.60
2022-12-23T11:03:52.764Z,11.33
2022-12-23T11:06:22.415Z,10.10
2022-12-23T11:08:52.393Z,11.83
2022-12-23T11:11:21.551Z,12.03
2022-12-23T11:13:51.363Z,10.33
2022-12-23T11:16:24.787Z,10.27
2022-12-23T11:18:59.144Z,9.80
2022-12-23T11:21:29.584Z,9.93
2022-12-23T11:24:26.300Z,9.83
2022-12-23T11:27:02.612Z,10.00
2022-12-23T11:29:35.286Z,9.87
2022-12-23T11:32:18.065Z,9.73
2022-12-23T11:34:49.176Z,10.60
2022-12-23T11:37:35.012Z,10.50
2022-12-23T11:40:24.681Z,10.27
2022-12-23T11:42:57.094Z,9.80
2022-12-23T11:45:29.569Z,12.60
2022-12-23T11:48:00.051Z,10.07
2022-12-23T11:50:35.536Z,10.10
2022-12-23T11:53:20.595Z,12.90
2022-12-23T11:56:00.625Z,12.57
2022-12-23T11:58:32.016Z,10.23
2022-12-23T12:01:07.940Z,15.27
2022-12-23T12:03:48.636Z,11.70
2022-12-23T12:06:19.684Z,10.00
2022-12-23T12:08:52.395Z,13.00
2022-12-23T12:11:26.695Z,9.10
2022-12-23T12:14:00.579Z,12.07
2022-12-23T12:16:47.870Z,17.17
2022-12-23T12:19:25.594Z,12.63
2022-12-23T12:22:01.262Z,10.03
2022-12-23T12:24:36.572Z,9.67
2022-12-23T12:27:08.514Z,8.90
2022-12-23T12:29:44.645Z,8.93
2022-12-23T12:32:20.573Z,10.03
2022-12-23T12:34:55.767Z,9.33
2022-12-23T12:37:34.309Z,9.23
2022-12-23T12:40:13.680Z,8.47
2022-12-23T12:42:45.307Z,8.87
2022-12-23T12:45:20.838Z,10.40
2022-12-23T12:48:16.031Z,9.17
2022-12-23T12:50:58.862Z,10.97
2022-12-23T12:53:31.291Z,9.30
2022-12-23T12:56:08.210Z,8.83
2022-12-23T12:58:38.293Z,8.40
2022-12-23T13:01:24.851Z,9.57
2022-12-23T13:04:48.852Z,9.47
2022-12-23T13:07:30.176Z,9.67
2022-12-23T13:10:08.023Z,8.67
2022-12-23T13:12:53.702Z,9.23
2022-12-23T13:15:30.914Z,8.60
2022-12-23T13:18:17.642Z,9.20
2022-12-23T13:20:55.408Z,7.47
2022-12-23T13:23:43.460Z,9.40
2022-12-23T13:26:21.746Z,8.43
2022-12-23T13:29:03.183Z,9.43
2022-12-23T13:31:45.183Z,8.80
2022-12-23T13:34:29.472Z,8.53
2022-12-23T13:37:09.245Z,8.73
2022-12-23T13:39:51.033Z,7.40
2022-12-23T13:42:28.717Z,9.20
2022-12-23T13:44:59.131Z,8.40
2022-12-23T13:47:40.049Z,9.07
2022-12-23T13:50:15.004Z,10.40
2022-12-23T13:53:01.446Z,9.93
2022-12-23T13:55:56.067Z,8.83
2022-12-23T13:58:28.037Z,8.77
2022-12-23T14:01:22.001Z,8.23
2022-12-23T14:03:51.959Z,9.80
2022-12-23T14:06:43.221Z,8.17
2022-12-23T14:09:17.353Z,9.83
2022-12-23T14:11:47.903Z,9.67
2022-12-23T14:14:23.785Z,9.63
2022-12-23T14:17:04.354Z,9.87
2022-12-23T14:20:04.539Z,8.80
2022-12-23T14:22:47.590Z,9.03
2022-12-23T14:25:36.606Z,10.30
2022-12-23T14:28:21.480Z,7.83
2022-12-23T14:30:50.794Z,9.00
2022-12-23T14:33:25.934Z,9.67
2022-12-23T14:35:58.239Z,9.17
2022-12-23T14:38:35.185Z,9.13
2022-12-23T14:41:24.587Z,9.77
2022-12-23T14:44:02.692Z,10.53
2022-12-23T14:46:59.318Z,9.77
2022-12-23T14:49:41.471Z,9.77
2022-12-23T14:52:53.634Z,9.63
2022-12-23T14:55:40.802Z,9.37
2022-12-23T14:58:20.521Z,9.60
2022-12-23T15:00:53.741Z,11.50
2022-12-23T15:03:23.538Z,10.60
2022-12-23T15:05:52.976Z,9.47
2022-12-23T15:08:31.834Z,9.97
2022-12-23T15:11:01.250Z,9.83
2022-12-23T15:13:32.859Z,10.53
2022-12-23T15:16:03.369Z,9.03
2022-12-23T15:18:32.412Z,9.90
2022-12-23T15:21:03.348Z,8.97
2022-12-23T15:23:33.265Z,9.43
2022-12-23T15:26:03.275Z,8.43
2022-12-23T15:28:39.160Z,9.97
2022-12-23T15:31:24.971Z,10.13
2022-12-23T15:34:03.960Z,8.80
2022-12-23T15:36:36.967Z,9.83
2022-12-23T15:39:11.090Z,9.60
2022-12-23T15:41:45.075Z,8.43
2022-12-23T15:44:19.383Z,9.90
2022-12-23T15:46:50.810Z,9.83
2022-12-23T15:49:21.999Z,9.23
2022-12-23T15:52:15.030Z,9.67
2022-12-23T15:54:52.710Z,9.27
2022-12-23T15:57:25.245Z,9.17
2022-12-23T15:59:55.066Z,10.23
2022-12-23T16:05:27.412Z,10.00
2022-12-23T16:08:11.932Z,8.93
2022-12-23T16:10:41.847Z,8.43
2022-12-23T16:13:19.104Z,7.77
2022-12-23T16:15:48.737Z,9.53
2022-12-23T16:18:25.496Z,8.03
2022-12-23T16:20:57.795Z,8.40
2022-12-23T16:23:31.771Z,10.00
2022-12-23T16:26:02.482Z,8.20
2022-12-23T16:28:43.180Z,9.00
2022-12-23T16:31:15.853Z,9.83
2022-12-23T16:33:50.737Z,8.83
2022-12-23T16:36:23.563Z,8.83
2022-12-23T16:38:56.066Z,10.13
2022-12-23T16:41:25.362Z,9.43
2022-12-23T16:43:54.536Z,9.03
2022-12-23T16:46:24.693Z,10.97
2022-12-23T16:48:58.395Z,11.23
2022-12-23T16:51:28.879Z,12.30
2022-12-23T16:53:59.102Z,11.13
2022-12-23T16:56:32.804Z,10.83
2022-12-23T16:59:01.911Z,10.30
2022-12-23T17:01:33.709Z,12.33
2022-12-23T17:04:04.431Z,11.20
2022-12-23T17:06:33.896Z,11.30
2022-12-23T17:09:03.056Z,12.47
2022-12-23T17:11:38.174Z,13.50
2022-12-23T17:14:15.233Z,13.27
2022-12-23T17:16:45.465Z,11.93
2022-12-23T17:19:20.475Z,12.30
2022-12-23T17:21:59.165Z,13.30
2022-12-23T17:24:28.798Z,11.73
2022-12-23T17:26:58.506Z,13.20
2022-12-23T17:29:28.235Z,12.77
2022-12-23T17:31:57.709Z,12.07
2022-12-23T17:34:28.219Z,11.47
2022-12-23T17:36:58.487Z,12.00
2022-12-23T17:39:27.604Z,13.23
2022-12-23T17:41:56.781Z,12.07
2022-12-23T17:44:25.877Z,11.23
2022-12-23T17:46:55.574Z,11.93
2022-12-23T17:49:24.678Z,13.10
2022-12-23T17:51:55.169Z,11.93
2022-12-23T17:54:27.460Z,11.87
2022-12-23T17:56:56.723Z,12.13
2022-12-23T17:59:25.899Z,12.87
2022-12-23T18:01:55.172Z,12.10
2022-12-23T18:04:24.261Z,12.73
2022-12-23T18:06:55.717Z,11.37
2022-12-23T18:09:24.923Z,12.90
2022-12-23T18:11:54.552Z,13.00
2022-12-23T18:14:28.312Z,15.07
2022-12-23T18:16:57.551Z,13.67
2022-12-23T18:19:26.960Z,12.00
2022-12-23T18:21:57.484Z,13.23
2022-12-23T18:24:27.186Z,13.53
2022-12-23T18:26:56.262Z,13.13
2022-12-23T18:29:25.413Z,14.07
2022-12-23T18:31:54.639Z,14.70
2022-12-23T18:34:23.863Z,12.00
2022-12-23T18:36:53.021Z,13.97
2022-12-23T18:39:23.631Z,13.87
2022-12-23T18:41:52.707Z,13.60
2022-12-23T18:44:22.602Z,11.37
2022-12-23T18:46:52.067Z,12.50
2022-12-23T18:49:21.308Z,12.83
2022-12-23T18:51:50.379Z,12.73
2022-12-23T18:54:19.461Z,13.80
2022-12-23T18:56:50.011Z,13.57
2022-12-23T18:59:29.183Z,13.20
2022-12-23T19:01:59.287Z,13.47
2022-12-23T19:04:28.987Z,13.07
2022-12-23T19:06:58.743Z,12.43
2022-12-23T19:09:27.874Z,11.83
2022-12-23T19:11:58.330Z,12.90
2022-12-23T19:14:27.521Z,12.17
2022-12-23T19:16:59.864Z,12.70
2022-12-23T19:19:29.056Z,11.93
2022-12-23T19:21:58.543Z,11.17
2022-12-23T19:24:27.796Z,11.87
2022-12-23T19:26:58.323Z,11.30
2022-12-23T19:29:27.933Z,11.43
2022-12-23T19:31:57.034Z,12.40
2022-12-23T19:34:26.211Z,12.00
2022-12-23T19:36:55.369Z,12.43
2022-12-23T19:39:26.772Z,11.87
2022-12-23T19:41:57.181Z,13.83
2022-12-23T19:44:26.548Z,12.57
2022-12-23T19:46:55.607Z,12.13
2022-12-23T19:49:25.092Z,12.00
2022-12-23T19:51:54.380Z,12.83
2022-12-23T19:54:23.551Z,11.77
2022-12-23T19:56:53.015Z,11.47
2022-12-23T19:59:23.608Z,11.93
2022-12-23T20:01:52.832Z,11.43
2022-12-23T20:04:23.745Z,11.67
2022-12-23T20:06:53.169Z,10.93
2022-12-23T20:09:22.704Z,10.20
2022-12-23T20:11:51.790Z,10.70
2022-12-23T20:14:22.357Z,11.80
2022-12-23T20:16:51.606Z,11.27
2022-12-23T20:19:20.729Z,11.00
2022-12-23T20:21:49.926Z,10.77
2022-12-23T20:24:19.212Z,10.53
2022-12-23T20:26:48.562Z,11.13
2022-12-23T20:29:17.644Z,10.63
2022-12-23T20:31:48.229Z,9.83
2022-12-23T20:34:18.342Z,10.70
2022-12-23T20:36:47.589Z,9.10
2022-12-23T20:39:16.965Z,10.17
2022-12-23T20:41:46.047Z,9.97
2022-12-23T20:47:07.705Z,10.20
2022-12-23T20:49:36.839Z,9.00
2022-12-23T20:52:06.140Z,9.97
2022-12-23T20:54:35.183Z,9.30
2022-12-23T20:57:04.533Z,8.67
2022-12-23T20:59:33.862Z,7.70
2022-12-23T21:02:03.043Z,7.63
2022-12-23T21:04:33.835Z,7.27
2022-12-23T21:07:02.891Z,6.10
2022-12-23T21:09:32.184Z,5.60
2022-12-23T21:12:01.590Z,5.10
2022-12-23T21:14:30.811Z,4.97
2022-12-23T21:16:59.851Z,5.13
2022-12-23T21:19:29.049Z,4.80
2022-12-23T21:21:59.616Z,4.50
2022-12-23T21:24:28.844Z,4.07
2022-12-23T21:26:57.867Z,3.87
2022-12-23T21:29:27.530Z,4.00
2022-12-23T21:31:56.854Z,3.23
2022-12-23T21:34:26.078Z,3.43
2022-12-23T21:36:55.285Z,3.00
2022-12-23T21:39:26.125Z,3.07
2022-12-23T21:41:55.275Z,3.50
2022-12-23T21:44:24.580Z,3.40
2022-12-23T21:46:53.733Z,2.50
2022-12-23T21:49:23.038Z,3.23
2022-12-23T21:51:52.092Z,2.53
2022-12-23T21:54:22.309Z,3.10
2022-12-23T21:56:52.804Z,3.17
2022-12-23T21:59:22.112Z,3.07
2022-12-23T22:01:51.300Z,3.23
2022-12-23T22:04:20.398Z,3.40
2022-12-23T22:06:49.484Z,3.57
2022-12-23T22:09:20.305Z,3.97
2022-12-23T22:11:49.822Z,3.77
2022-12-23T22:14:20.738Z,3.80
2022-12-23T22:16:49.844Z,3.87
2022-12-23T22:19:19.069Z,4.17
2022-12-23T22:21:48.133Z,3.53
2022-12-23T22:24:17.274Z,3.83
2022-12-23T22:26:46.417Z,3.50
2022-12-23T22:29:15.455Z,3.87
2022-12-23T22:31:48.550Z,4.23
2022-12-23T22:34:20.482Z,3.53
2022-12-23T22:36:50.586Z,3.40
2022-12-23T22:39:22.040Z,3.30
2022-12-23T22:41:51.551Z,4.27
2022-12-23T22:44:23.569Z,3.77
2022-12-23T22:46:54.016Z,3.30
2022-12-23T22:49:23.149Z,3.50
2022-12-23T22:51:52.207Z,3.70
2022-12-23T22:54:21.359Z,4.10
2022-12-23T22:56:50.405Z,4.00
2022-12-23T22:59:25.744Z,3.93
2022-12-23T23:01:56.528Z,3.57
2022-12-23T23:04:25.787Z,3.80
2022-12-23T23:06:55.142Z,3.23
2022-12-23T23:09:24.365Z,3.80
2022-12-23T23:11:53.524Z,3.80
2022-12-23T23:14:22.634Z,2.90
2022-12-23T23:16:51.790Z,3.10
2022-12-23T23:19:22.368Z,3.50
2022-12-23T23:21:53.393Z,2.83
2022-12-23T23:24:27.726Z,3.63
2022-12-23T23:27:00.126Z,4.20
2022-12-23T23:29:29.256Z,3.63
2022-12-23T23:31:58.349Z,3.40
2022-12-23T23:34:29.019Z,4.10
2022-12-23T23:36:58.873Z,3.60
2022-12-23T23:39:28.088Z,3.40
2022-12-23T23:41:57.277Z,3.07
2022-12-23T23:44:26.323Z,3.10
2022-12-23T23:46:55.376Z,4.00
2022-12-23T23:49:24.677Z,3.83
2022-12-23T23:51:55.364Z,3.60
2022-12-23T23:54:24.389Z,3.70
2022-12-23T23:56:53.522Z,3.40
2022-12-23T23:59:22.557Z,3.37
